Terminal Aerodrome Forecast
Issued by NWS Upton, NY

Home | Current Version | Previous Version | Text Only | Print | Product List | Glossary On
Versions: 1 2 3 4 5 6 7 8 9 10 11 12 13 14 15 16 17 18 19 20 21 22 23 24 25 26 27 28 29 30 31 32 33 34
061
FTUS41 KOKX 301739
TAFLGA
TAF
KLGA 301739Z 3018/3118 06010KT P6SM VCTS SCT025CB BKN035 BKN100
     FM302100 15008KT P6SM VCTS BKN035CB
      TEMPO 3021/3101 4SM SHRA OVC025
     FM310100 15007KT P6SM SCT025 OVC050
      TEMPO 3101/3104 4SM SHRA OVC025
     FM310400 12007KT P6SM OVC025
     FM310800 10009KT 4SM SHRA BR OVC015
     FM311600 09012KT 5SM -SHRA BR SCT015 OVC025=

USA.gov is the U.S. government's official web portal to all federal, state and local government web resources and services.